createdAt,value
2023-05-05T00:00:43.194Z,7.92
2023-05-05T00:10:43.344Z,7.82
2023-05-05T00:20:43.194Z,7.79
2023-05-05T00:30:43.206Z,7.66
2023-05-05T00:40:43.200Z,7.52
2023-05-05T00:50:43.195Z,7.48
2023-05-05T01:00:43.176Z,7.32
2023-05-05T01:10:43.176Z,7.11
2023-05-05T01:20:43.150Z,7.05
2023-05-05T01:30:43.210Z,6.87
2023-05-05T01:40:43.250Z,6.82
2023-05-05T01:50:43.162Z,6.63
2023-05-05T02:00:43.177Z,6.51
2023-05-05T02:10:43.193Z,6.4
2023-05-05T02:20:43.185Z,6.4
2023-05-05T02:30:43.176Z,6.44
2023-05-05T02:40:43.174Z,6.34
2023-05-05T02:50:43.158Z,6.21
2023-05-05T03:00:43.256Z,6.02
2023-05-05T03:10:43.145Z,6.03
2023-05-05T03:20:43.125Z,6.02
2023-05-05T03:30:43.378Z,5.88
2023-05-05T03:40:44.721Z,5.81
2023-05-05T03:50:43.106Z,5.89
2023-05-05T04:00:43.134Z,5.97
2023-05-05T04:10:43.112Z,6.1
2023-05-05T04:20:43.133Z,6.19
2023-05-05T04:30:43.143Z,6.33
2023-05-05T04:40:43.155Z,6.43
2023-05-05T04:50:43.154Z,6.94
2023-05-05T05:00:43.137Z,7.99
2023-05-05T05:10:43.227Z,8.09
2023-05-05T05:20:43.094Z,8.17
2023-05-05T05:30:43.154Z,8.47
2023-05-05T05:40:43.102Z,9.64
2023-05-05T05:50:43.097Z,10.9
2023-05-05T06:00:43.071Z,12.14
2023-05-05T06:10:43.095Z,13.32
2023-05-05T06:20:43.072Z,13.73
2023-05-05T06:30:43.102Z,14.48
2023-05-05T06:40:43.059Z,15.38
2023-05-05T06:50:43.059Z,15.72
2023-05-05T07:00:43.056Z,16.39
2023-05-05T07:10:43.121Z,17.09
2023-05-05T07:20:43.033Z,16.79
2023-05-05T07:30:43.005Z,16.86
2023-05-05T07:40:42.975Z,17.81
2023-05-05T07:50:43.038Z,17.2
2023-05-05T08:00:43.010Z,17.3
2023-05-05T08:10:43.012Z,17.42
2023-05-05T08:20:42.930Z,18.25
2023-05-05T08:30:42.994Z,19.13
2023-05-05T08:40:42.961Z,18.87
2023-05-05T08:50:42.935Z,19.16
2023-05-05T09:00:42.973Z,19.3
2023-05-05T09:10:42.911Z,19.53
2023-05-05T09:20:42.886Z,19.91
2023-05-05T09:30:42.954Z,19.85
2023-05-05T09:40:42.889Z,21.08
2023-05-05T09:50:42.884Z,21.22
2023-05-05T10:00:42.866Z,21.25
2023-05-05T10:10:42.854Z,22.03
2023-05-05T10:20:42.850Z,22.19
2023-05-05T10:30:42.848Z,22.37
2023-05-05T10:40:42.828Z,22.89
2023-05-05T10:50:42.822Z,23.37
2023-05-05T11:00:42.775Z,23.57
2023-05-05T11:10:42.790Z,23.76
2023-05-05T11:20:42.759Z,24.42
2023-05-05T11:30:42.791Z,24.55
2023-05-05T11:40:42.784Z,24.92
2023-05-05T11:50:42.711Z,25.49
2023-05-05T12:00:42.741Z,25.93
2023-05-05T12:10:42.811Z,26.13
2023-05-05T12:20:42.690Z,26.46
2023-05-05T12:30:42.746Z,26.77
2023-05-05T12:40:42.694Z,26.98
2023-05-05T12:50:42.679Z,27.38
2023-05-05T13:00:42.674Z,27.38
2023-05-05T13:10:42.666Z,27.28
2023-05-05T13:20:42.665Z,27.31
2023-05-05T13:30:42.639Z,27.2
2023-05-05T13:40:42.631Z,27.46
2023-05-05T13:50:42.593Z,27.61
2023-05-05T14:00:42.621Z,26.07
2023-05-05T14:10:43.122Z,24.95
2023-05-05T14:20:42.559Z,25
2023-05-05T14:30:42.541Z,26.22
2023-05-05T14:40:42.534Z,25.81
2023-05-05T14:50:42.568Z,26.07
2023-05-05T15:00:42.513Z,25.62
2023-05-05T15:10:42.576Z,26.13
2023-05-05T15:20:42.501Z,26.73
2023-05-05T15:30:42.540Z,26.96
2023-05-05T15:40:42.473Z,27.18
2023-05-05T15:50:42.479Z,27.46
2023-05-05T16:00:42.446Z,27.32
2023-05-05T16:10:42.453Z,25.57
2023-05-05T16:20:42.429Z,24.58
2023-05-05T16:30:42.439Z,24.16
2023-05-05T16:40:42.423Z,24.28
2023-05-05T16:50:42.416Z,24.03
2023-05-05T17:00:42.361Z,23.72
2023-05-05T17:10:42.416Z,23.06
2023-05-05T17:20:42.362Z,22.51
2023-05-05T17:30:42.414Z,21.93
2023-05-05T17:40:42.425Z,21.31
2023-05-05T17:50:43.366Z,20.68
2023-05-05T18:00:42.369Z,20.27
2023-05-05T18:10:42.312Z,19.82
2023-05-05T18:20:42.312Z,19.6
2023-05-05T18:30:42.304Z,19.06
2023-05-05T18:40:42.297Z,18.87
2023-05-05T18:50:42.250Z,19.59
2023-05-05T19:00:42.324Z,19.96
2023-05-05T19:10:42.300Z,20.14
2023-05-05T19:20:42.263Z,20.13
2023-05-05T19:30:42.245Z,19.97
2023-05-05T19:40:42.239Z,19.5
2023-05-05T19:50:42.212Z,19.11
2023-05-05T20:00:42.219Z,19.05
2023-05-05T20:10:42.290Z,18.65
2023-05-05T20:20:42.167Z,18.9
2023-05-05T20:30:42.167Z,18.86
2023-05-05T20:40:42.181Z,18.62
2023-05-05T20:50:42.180Z,18.13
2023-05-05T21:00:42.204Z,18.12
2023-05-05T21:10:42.147Z,17.87
2023-05-05T21:20:42.136Z,17.37
2023-05-05T21:30:42.087Z,16.92
2023-05-05T21:40:42.093Z,16.24
2023-05-05T21:50:42.086Z,15.69
2023-05-05T22:00:42.100Z,15.29
2023-05-05T22:10:42.090Z,14.95
2023-05-05T22:20:42.106Z,14.61
2023-05-05T22:30:42.067Z,14.14
2023-05-05T22:40:42.038Z,13.93
2023-05-05T22:50:42.029Z,13.73
2023-05-05T23:00:42.059Z,13.33
2023-05-05T23:10:42.034Z,12.9
2023-05-05T23:20:42.021Z,12.56
2023-05-05T23:30:42.017Z,12.19
2023-05-05T23:40:42.015Z,11.86
2023-05-05T23:50:42.004Z,11.69
